Terminal Aerodrome Forecast
Issued by NWS

Home | Current Version | Previous Version | Text Only | Print | Product List | Glossary On
Versions: 1 2 3 4 5 6 7 8 9 10 11 12 13 14 15 16 17 18 19 20 21 22 23 24 25 26 27 28 29
000
FTUS43 KAPX 271700 RRA
TAFAPN
TAF
KAPN 271743Z 2718/2818 30010G18KT P6SM SCT040
     FM272300 30008G14KT P6SM SKC
     FM280100 00000KT P6SM SKC
     FM281700 06007KT P6SM FEW050=

USA.gov is the U.S. government's official web portal to all federal, state and local government web resources and services.